sensor_id;sensor_type;location;lat;lon;timestamp;temperature;humidity
11142;DHT22;5625;50.122;19.864;2023-04-24T00:00:38;13.50;98.90
11142;DHT22;5625;50.122;19.864;2023-04-24T00:03:09;13.50;99.90
11142;DHT22;5625;50.122;19.864;2023-04-24T00:05:37;13.50;99.90
11142;DHT22;5625;50.122;19.864;2023-04-24T00:08:06;13.40;99.90
11142;DHT22;5625;50.122;19.864;2023-04-24T00:10:34;13.30;99.90
11142;DHT22;5625;50.122;19.864;2023-04-24T00:13:02;13.30;99.90
11142;DHT22;5625;50.122;19.864;2023-04-24T00:15:31;13.20;99.90
11142;DHT22;5625;50.122;19.864;2023-04-24T00:17:59;13.20;99.90
11142;DHT22;5625;50.122;19.864;2023-04-24T00:20:30;13.10;99.90
11142;DHT22;5625;50.122;19.864;2023-04-24T00:22:59;13.10;99.90
11142;DHT22;5625;50.122;19.864;2023-04-24T00:25:27;13.20;1.00
11142;DHT22;5625;50.122;19.864;2023-04-24T00:27:55;13.20;1.00
11142;DHT22;5625;50.122;19.864;2023-04-24T00:30:25;13.20;35.80
11142;DHT22;5625;50.122;19.864;2023-04-24T00:32:53;13.10;90.20
11142;DHT22;5625;50.122;19.864;2023-04-24T00:35:21;13.20;99.90
11142;DHT22;5625;50.122;19.864;2023-04-24T00:37:51;13.10;99.90
11142;DHT22;5625;50.122;19.864;2023-04-24T00:40:19;13.10;99.90
11142;DHT22;5625;50.122;19.864;2023-04-24T00:42:47;13.10;99.90
11142;DHT22;5625;50.122;19.864;2023-04-24T00:45:16;13.00;99.90
11142;DHT22;5625;50.122;19.864;2023-04-24T00:47:45;13.00;99.90
11142;DHT22;5625;50.122;19.864;2023-04-24T00:50:15;12.90;99.90
11142;DHT22;5625;50.122;19.864;2023-04-24T00:52:43;12.90;1.00
11142;DHT22;5625;50.122;19.864;2023-04-24T00:55:13;12.90;1.00
11142;DHT22;5625;50.122;19.864;2023-04-24T00:57:42;12.80;1.00
11142;DHT22;5625;50.122;19.864;2023-04-24T01:00:11;12.70;1.00
11142;DHT22;5625;50.122;19.864;2023-04-24T01:02:40;12.70;1.00
11142;DHT22;5625;50.122;19.864;2023-04-24T01:05:11;12.60;1.00
11142;DHT22;5625;50.122;19.864;2023-04-24T01:07:41;12.60;1.00
11142;DHT22;5625;50.122;19.864;2023-04-24T01:10:14;12.60;15.30
11142;DHT22;5625;50.122;19.864;2023-04-24T01:12:43;12.60;47.80
11142;DHT22;5625;50.122;19.864;2023-04-24T01:15:11;12.60;76.30
11142;DHT22;5625;50.122;19.864;2023-04-24T01:17:39;12.50;97.30
11142;DHT22;5625;50.122;19.864;2023-04-24T01:20:08;12.50;99.80
11142;DHT22;5625;50.122;19.864;2023-04-24T01:22:38;12.50;96.70
11142;DHT22;5625;50.122;19.864;2023-04-24T01:25:08;12.50;91.80
11142;DHT22;5625;50.122;19.864;2023-04-24T01:27:36;12.40;78.80
11142;DHT22;5625;50.122;19.864;2023-04-24T01:30:05;12.40;37.50
11142;DHT22;5625;50.122;19.864;2023-04-24T01:32:34;12.40;14.50
11142;DHT22;5625;50.122;19.864;2023-04-24T01:35:03;12.40;1.00
11142;DHT22;5625;50.122;19.864;2023-04-24T01:37:31;12.30;99.90
11142;DHT22;5625;50.122;19.864;2023-04-24T01:40:01;12.30;99.90
11142;DHT22;5625;50.122;19.864;2023-04-24T01:42:30;12.30;99.90
11142;DHT22;5625;50.122;19.864;2023-04-24T01:44:59;12.30;99.90
11142;DHT22;5625;50.122;19.864;2023-04-24T01:47:28;12.40;99.90
11142;DHT22;5625;50.122;19.864;2023-04-24T01:49:57;12.40;99.90
11142;DHT22;5625;50.122;19.864;2023-04-24T01:52:26;12.40;99.90
11142;DHT22;5625;50.122;19.864;2023-04-24T01:54:55;12.40;99.90
11142;DHT22;5625;50.122;19.864;2023-04-24T01:57:25;12.40;99.90
11142;DHT22;5625;50.122;19.864;2023-04-24T01:59:53;12.40;77.20
11142;DHT22;5625;50.122;19.864;2023-04-24T02:02:21;12.30;99.90
11142;DHT22;5625;50.122;19.864;2023-04-24T02:04:50;12.30;67.50
11142;DHT22;5625;50.122;19.864;2023-04-24T02:07:18;12.30;15.70
11142;DHT22;5625;50.122;19.864;2023-04-24T02:09:46;12.30;1.00
11142;DHT22;5625;50.122;19.864;2023-04-24T02:12:15;12.30;1.00
11142;DHT22;5625;50.122;19.864;2023-04-24T02:14:45;12.30;1.00
11142;DHT22;5625;50.122;19.864;2023-04-24T02:17:13;12.30;1.00
11142;DHT22;5625;50.122;19.864;2023-04-24T02:19:42;12.30;17.60
11142;DHT22;5625;50.122;19.864;2023-04-24T02:22:10;12.30;14.60
11142;DHT22;5625;50.122;19.864;2023-04-24T02:24:39;12.30;1.00
11142;DHT22;5625;50.122;19.864;2023-04-24T02:27:07;12.30;5.80
11142;DHT22;5625;50.122;19.864;2023-04-24T02:29:35;12.20;14.80
11142;DHT22;5625;50.122;19.864;2023-04-24T02:32:04;12.20;65.00
11142;DHT22;5625;50.122;19.864;2023-04-24T02:34:32;12.20;99.90
11142;DHT22;5625;50.122;19.864;2023-04-24T02:37:00;12.20;99.90
11142;DHT22;5625;50.122;19.864;2023-04-24T02:39:28;12.20;99.90
11142;DHT22;5625;50.122;19.864;2023-04-24T02:41:56;12.20;99.90
11142;DHT22;5625;50.122;19.864;2023-04-24T02:44:24;12.10;99.90
11142;DHT22;5625;50.122;19.864;2023-04-24T02:46:52;12.10;99.90
11142;DHT22;5625;50.122;19.864;2023-04-24T02:49:22;12.10;99.90
11142;DHT22;5625;50.122;19.864;2023-04-24T02:51:50;12.10;99.90
11142;DHT22;5625;50.122;19.864;2023-04-24T02:54:18;12.00;99.90
11142;DHT22;5625;50.122;19.864;2023-04-24T02:56:46;12.00;99.90
11142;DHT22;5625;50.122;19.864;2023-04-24T02:59:14;12.00;99.90
11142;DHT22;5625;50.122;19.864;2023-04-24T03:01:42;12.00;99.90
11142;DHT22;5625;50.122;19.864;2023-04-24T03:04:10;12.00;99.90
11142;DHT22;5625;50.122;19.864;2023-04-24T03:06:40;12.00;99.90
11142;DHT22;5625;50.122;19.864;2023-04-24T03:09:08;12.00;99.90
11142;DHT22;5625;50.122;19.864;2023-04-24T03:11:36;12.00;99.90
11142;DHT22;5625;50.122;19.864;2023-04-24T03:14:04;11.90;99.90
11142;DHT22;5625;50.122;19.864;2023-04-24T03:16:32;11.90;99.90
11142;DHT22;5625;50.122;19.864;2023-04-24T03:19:00;11.80;99.90
11142;DHT22;5625;50.122;19.864;2023-04-24T03:21:29;11.80;99.90
11142;DHT22;5625;50.122;19.864;2023-04-24T03:23:58;11.90;99.90
11142;DHT22;5625;50.122;19.864;2023-04-24T03:26:26;11.80;99.90
11142;DHT22;5625;50.122;19.864;2023-04-24T03:28:54;11.80;99.90
11142;DHT22;5625;50.122;19.864;2023-04-24T03:31:23;11.80;99.90
11142;DHT22;5625;50.122;19.864;2023-04-24T03:33:51;11.80;99.90
11142;DHT22;5625;50.122;19.864;2023-04-24T03:36:20;11.70;99.90
11142;DHT22;5625;50.122;19.864;2023-04-24T03:38:48;11.70;99.90
11142;DHT22;5625;50.122;19.864;2023-04-24T03:41:18;11.70;99.90
11142;DHT22;5625;50.122;19.864;2023-04-24T03:43:46;11.70;99.90
11142;DHT22;5625;50.122;19.864;2023-04-24T03:46:14;11.70;99.90
11142;DHT22;5625;50.122;19.864;2023-04-24T03:48:42;11.70;99.90
11142;DHT22;5625;50.122;19.864;2023-04-24T03:51:10;11.70;99.90
11142;DHT22;5625;50.122;19.864;2023-04-24T03:53:38;11.70;99.90
11142;DHT22;5625;50.122;19.864;2023-04-24T03:56:06;11.60;99.90
11142;DHT22;5625;50.122;19.864;2023-04-24T03:58:36;11.60;99.90
11142;DHT22;5625;50.122;19.864;2023-04-24T04:01:04;11.60;99.90
11142;DHT22;5625;50.122;19.864;2023-04-24T04:03:32;11.70;99.90
11142;DHT22;5625;50.122;19.864;2023-04-24T04:06:00;11.60;99.90
11142;DHT22;5625;50.122;19.864;2023-04-24T04:08:28;11.60;99.90
11142;DHT22;5625;50.122;19.864;2023-04-24T04:10:57;11.60;99.90
11142;DHT22;5625;50.122;19.864;2023-04-24T04:13:25;11.70;99.90
11142;DHT22;5625;50.122;19.864;2023-04-24T04:15:54;11.70;99.90
11142;DHT22;5625;50.122;19.864;2023-04-24T04:18:22;11.70;99.90
11142;DHT22;5625;50.122;19.864;2023-04-24T04:20:50;11.70;99.90
11142;DHT22;5625;50.122;19.864;2023-04-24T04:23:18;11.70;99.90
11142;DHT22;5625;50.122;19.864;2023-04-24T04:25:47;11.80;99.90
11142;DHT22;5625;50.122;19.864;2023-04-24T04:28:16;11.80;99.90
11142;DHT22;5625;50.122;19.864;2023-04-24T04:30:46;11.90;99.90
11142;DHT22;5625;50.122;19.864;2023-04-24T04:33:16;11.90;99.90
11142;DHT22;5625;50.122;19.864;2023-04-24T04:35:45;11.90;99.20
11142;DHT22;5625;50.122;19.864;2023-04-24T04:38:15;12.00;99.50
11142;DHT22;5625;50.122;19.864;2023-04-24T04:40:44;12.10;45.20
11142;DHT22;5625;50.122;19.864;2023-04-24T04:43:12;12.10;1.00
11142;DHT22;5625;50.122;19.864;2023-04-24T04:45:41;12.10;1.00
11142;DHT22;5625;50.122;19.864;2023-04-24T04:48:10;12.20;1.00
11142;DHT22;5625;50.122;19.864;2023-04-24T04:50:41;12.30;1.00
11142;DHT22;5625;50.122;19.864;2023-04-24T04:53:09;12.30;1.00
11142;DHT22;5625;50.122;19.864;2023-04-24T04:55:37;12.50;1.00
11142;DHT22;5625;50.122;19.864;2023-04-24T04:58:05;12.60;99.90
11142;DHT22;5625;50.122;19.864;2023-04-24T05:00:34;12.80;99.90
11142;DHT22;5625;50.122;19.864;2023-04-24T05:03:04;13.00;99.90
11142;DHT22;5625;50.122;19.864;2023-04-24T05:05:48;13.20;1.00
11142;DHT22;5625;50.122;19.864;2023-04-24T05:08:16;13.40;99.90
11142;DHT22;5625;50.122;19.864;2023-04-24T05:10:53;13.60;14.30
11142;DHT22;5625;50.122;19.864;2023-04-24T05:13:21;13.80;99.90
11142;DHT22;5625;50.122;19.864;2023-04-24T05:16:05;13.90;1.00
11142;DHT22;5625;50.122;19.864;2023-04-24T05:18:33;14.10;1.00
11142;DHT22;5625;50.122;19.864;2023-04-24T05:21:03;14.30;99.90
11142;DHT22;5625;50.122;19.864;2023-04-24T05:23:31;14.60;99.90
11142;DHT22;5625;50.122;19.864;2023-04-24T05:25:59;14.80;1.00
11142;DHT22;5625;50.122;19.864;2023-04-24T05:28:27;15.00;99.90
11142;DHT22;5625;50.122;19.864;2023-04-24T05:30:55;15.20;99.90
11142;DHT22;5625;50.122;19.864;2023-04-24T05:33:24;15.50;1.00
11142;DHT22;5625;50.122;19.864;2023-04-24T05:35:54;15.80;1.00
11142;DHT22;5625;50.122;19.864;2023-04-24T05:38:24;16.30;99.90
11142;DHT22;5625;50.122;19.864;2023-04-24T05:40:52;16.50;99.90
11142;DHT22;5625;50.122;19.864;2023-04-24T05:43:20;16.90;56.30
11142;DHT22;5625;50.122;19.864;2023-04-24T05:45:48;17.30;1.00
11142;DHT22;5625;50.122;19.864;2023-04-24T05:48:16;17.40;99.90
11142;DHT22;5625;50.122;19.864;2023-04-24T05:50:44;17.70;99.90
11142;DHT22;5625;50.122;19.864;2023-04-24T05:53:14;17.90;99.90
11142;DHT22;5625;50.122;19.864;2023-04-24T05:55:44;18.30;94.90
11142;DHT22;5625;50.122;19.864;2023-04-24T05:58:12;18.70;1.00
11142;DHT22;5625;50.122;19.864;2023-04-24T06:00:41;19.20;1.00
11142;DHT22;5625;50.122;19.864;2023-04-24T06:03:11;19.40;1.00
11142;DHT22;5625;50.122;19.864;2023-04-24T06:05:39;19.70;99.90
11142;DHT22;5625;50.122;19.864;2023-04-24T06:08:07;20.20;99.90
11142;DHT22;5625;50.122;19.864;2023-04-24T06:10:38;20.50;99.90
11142;DHT22;5625;50.122;19.864;2023-04-24T06:13:08;20.70;99.90
11142;DHT22;5625;50.122;19.864;2023-04-24T06:15:36;21.00;99.90
11142;DHT22;5625;50.122;19.864;2023-04-24T06:18:04;21.10;99.90
11142;DHT22;5625;50.122;19.864;2023-04-24T06:20:33;21.40;99.90
11142;DHT22;5625;50.122;19.864;2023-04-24T06:23:01;21.90;77.60
11142;DHT22;5625;50.122;19.864;2023-04-24T06:25:29;22.10;26.20
11142;DHT22;5625;50.122;19.864;2023-04-24T06:27:57;22.30;1.00
11142;DHT22;5625;50.122;19.864;2023-04-24T06:30:27;22.20;1.00
11142;DHT22;5625;50.122;19.864;2023-04-24T06:32:55;22.40;1.00
11142;DHT22;5625;50.122;19.864;2023-04-24T06:35:38;22.60;1.00
11142;DHT22;5625;50.122;19.864;2023-04-24T06:38:07;22.90;1.00
11142;DHT22;5625;50.122;19.864;2023-04-24T06:40:35;23.30;1.00
11142;DHT22;5625;50.122;19.864;2023-04-24T06:43:03;23.10;1.00
11142;DHT22;5625;50.122;19.864;2023-04-24T06:45:36;23.10;1.00
11142;DHT22;5625;50.122;19.864;2023-04-24T06:48:05;23.30;1.00
11142;DHT22;5625;50.122;19.864;2023-04-24T06:50:34;23.30;99.90
11142;DHT22;5625;50.122;19.864;2023-04-24T06:53:02;23.80;99.90
11142;DHT22;5625;50.122;19.864;2023-04-24T06:55:31;24.00;99.90
11142;DHT22;5625;50.122;19.864;2023-04-24T06:57:59;24.40;99.90
11142;DHT22;5625;50.122;19.864;2023-04-24T07:00:27;24.60;99.90
11142;DHT22;5625;50.122;19.864;2023-04-24T07:02:58;25.10;99.90
11142;DHT22;5625;50.122;19.864;2023-04-24T07:05:26;25.50;99.90
11142;DHT22;5625;50.122;19.864;2023-04-24T07:07:54;26.00;99.90
11142;DHT22;5625;50.122;19.864;2023-04-24T07:10:24;25.20;99.90
11142;DHT22;5625;50.122;19.864;2023-04-24T07:12:55;24.40;99.90
11142;DHT22;5625;50.122;19.864;2023-04-24T07:15:26;24.20;99.90
11142;DHT22;5625;50.122;19.864;2023-04-24T07:17:54;24.50;99.90
11142;DHT22;5625;50.122;19.864;2023-04-24T07:20:26;25.50;99.90
11142;DHT22;5625;50.122;19.864;2023-04-24T07:22:54;26.10;99.90
11142;DHT22;5625;50.122;19.864;2023-04-24T07:25:22;26.20;99.90
11142;DHT22;5625;50.122;19.864;2023-04-24T07:27:51;26.00;99.90
11142;DHT22;5625;50.122;19.864;2023-04-24T07:30:19;26.40;99.90
11142;DHT22;5625;50.122;19.864;2023-04-24T07:32:48;26.50;99.90
11142;DHT22;5625;50.122;19.864;2023-04-24T07:35:16;26.30;99.90
11142;DHT22;5625;50.122;19.864;2023-04-24T07:37:45;26.80;99.90
11142;DHT22;5625;50.122;19.864;2023-04-24T07:40:14;26.80;99.90
11142;DHT22;5625;50.122;19.864;2023-04-24T07:42:43;26.90;99.90
11142;DHT22;5625;50.122;19.864;2023-04-24T07:45:11;27.40;99.90
11142;DHT22;5625;50.122;19.864;2023-04-24T07:47:39;27.40;99.90
11142;DHT22;5625;50.122;19.864;2023-04-24T07:50:10;27.10;99.90
11142;DHT22;5625;50.122;19.864;2023-04-24T07:52:39;27.70;99.90
11142;DHT22;5625;50.122;19.864;2023-04-24T07:55:08;28.30;99.90
11142;DHT22;5625;50.122;19.864;2023-04-24T07:57:36;28.40;99.90
11142;DHT22;5625;50.122;19.864;2023-04-24T08:00:08;28.20;99.90
11142;DHT22;5625;50.122;19.864;2023-04-24T08:02:37;28.30;99.90
11142;DHT22;5625;50.122;19.864;2023-04-24T08:05:06;28.50;99.90
11142;DHT22;5625;50.122;19.864;2023-04-24T08:07:34;29.00;99.90
11142;DHT22;5625;50.122;19.864;2023-04-24T08:10:03;28.90;99.90
11142;DHT22;5625;50.122;19.864;2023-04-24T08:12:33;28.60;99.90
11142;DHT22;5625;50.122;19.864;2023-04-24T08:15:03;28.60;99.90
11142;DHT22;5625;50.122;19.864;2023-04-24T08:17:32;28.60;99.90
11142;DHT22;5625;50.122;19.864;2023-04-24T08:20:00;28.90;99.90
11142;DHT22;5625;50.122;19.864;2023-04-24T08:22:29;28.90;99.90
11142;DHT22;5625;50.122;19.864;2023-04-24T08:24:59;29.10;99.90
11142;DHT22;5625;50.122;19.864;2023-04-24T08:27:27;28.90;98.80
11142;DHT22;5625;50.122;19.864;2023-04-24T08:29:57;28.80;96.90
11142;DHT22;5625;50.122;19.864;2023-04-24T08:32:26;28.60;94.10
11142;DHT22;5625;50.122;19.864;2023-04-24T08:34:55;28.40;92.70
11142;DHT22;5625;50.122;19.864;2023-04-24T08:37:25;28.80;92.80
11142;DHT22;5625;50.122;19.864;2023-04-24T08:39:53;28.80;92.20
11142;DHT22;5625;50.122;19.864;2023-04-24T08:42:21;28.90;90.10
11142;DHT22;5625;50.122;19.864;2023-04-24T08:44:54;28.40;84.30
11142;DHT22;5625;50.122;19.864;2023-04-24T08:47:29;28.20;82.30
11142;DHT22;5625;50.122;19.864;2023-04-24T08:49:57;28.40;83.00
11142;DHT22;5625;50.122;19.864;2023-04-24T08:52:26;28.50;83.20
11142;DHT22;5625;50.122;19.864;2023-04-24T08:54:55;28.90;84.50
11142;DHT22;5625;50.122;19.864;2023-04-24T08:57:25;28.70;81.10
11142;DHT22;5625;50.122;19.864;2023-04-24T08:59:54;28.90;81.70
11142;DHT22;5625;50.122;19.864;2023-04-24T09:02:24;28.80;79.20
11142;DHT22;5625;50.122;19.864;2023-04-24T09:04:55;28.90;78.60
11142;DHT22;5625;50.122;19.864;2023-04-24T09:07:24;28.90;75.50
11142;DHT22;5625;50.122;19.864;2023-04-24T09:09:53;29.10;75.20
11142;DHT22;5625;50.122;19.864;2023-04-24T09:12:22;29.20;73.50
11142;DHT22;5625;50.122;19.864;2023-04-24T09:14:52;29.60;71.50
11142;DHT22;5625;50.122;19.864;2023-04-24T09:17:21;28.90;66.80
11142;DHT22;5625;50.122;19.864;2023-04-24T09:19:50;27.90;60.10
11142;DHT22;5625;50.122;19.864;2023-04-24T09:22:20;27.70;59.90
11142;DHT22;5625;50.122;19.864;2023-04-24T09:24:48;28.00;61.50
11142;DHT22;5625;50.122;19.864;2023-04-24T09:27:28;28.70;63.90
11142;DHT22;5625;50.122;19.864;2023-04-24T09:29:57;29.40;66.00
11142;DHT22;5625;50.122;19.864;2023-04-24T09:32:25;29.70;65.40
11142;DHT22;5625;50.122;19.864;2023-04-24T09:35:09;29.90;63.90
11142;DHT22;5625;50.122;19.864;2023-04-24T09:37:40;30.30;61.20
11142;DHT22;5625;50.122;19.864;2023-04-24T09:40:14;30.40;57.60
11142;DHT22;5625;50.122;19.864;2023-04-24T09:42:46;30.60;56.90
11142;DHT22;5625;50.122;19.864;2023-04-24T09:45:14;30.40;52.80
11142;DHT22;5625;50.122;19.864;2023-04-24T09:47:44;30.30;51.10
11142;DHT22;5625;50.122;19.864;2023-04-24T09:50:14;30.50;52.40
11142;DHT22;5625;50.122;19.864;2023-04-24T09:52:46;30.80;52.30
11142;DHT22;5625;50.122;19.864;2023-04-24T09:55:18;30.80;50.20
11142;DHT22;5625;50.122;19.864;2023-04-24T09:57:51;31.10;50.50
11142;DHT22;5625;50.122;19.864;2023-04-24T10:00:22;31.30;48.30
11142;DHT22;5625;50.122;19.864;2023-04-24T10:02:54;30.90;42.30
11142;DHT22;5625;50.122;19.864;2023-04-24T10:05:28;30.70;39.40
11142;DHT22;5625;50.122;19.864;2023-04-24T10:08:00;30.70;37.00
11142;DHT22;5625;50.122;19.864;2023-04-24T10:10:29;30.80;36.50
11142;DHT22;5625;50.122;19.864;2023-04-24T10:12:59;30.90;34.10
11142;DHT22;5625;50.122;19.864;2023-04-24T10:15:29;31.10;35.90
11142;DHT22;5625;50.122;19.864;2023-04-24T10:17:58;31.30;34.60
11142;DHT22;5625;50.122;19.864;2023-04-24T10:20:28;30.80;29.20
11142;DHT22;5625;50.122;19.864;2023-04-24T10:22:59;30.50;29.00
11142;DHT22;5625;50.122;19.864;2023-04-24T10:25:29;30.00;26.00
11142;DHT22;5625;50.122;19.864;2023-04-24T10:27:59;29.90;25.50
11142;DHT22;5625;50.122;19.864;2023-04-24T10:30:29;30.00;24.90
11142;DHT22;5625;50.122;19.864;2023-04-24T10:32:57;29.90;24.80
11142;DHT22;5625;50.122;19.864;2023-04-24T10:35:25;29.80;24.70
11142;DHT22;5625;50.122;19.864;2023-04-24T10:37:59;29.50;24.80
11142;DHT22;5625;50.122;19.864;2023-04-24T10:40:31;29.60;25.50
11142;DHT22;5625;50.122;19.864;2023-04-24T10:43:01;29.70;24.90
11142;DHT22;5625;50.122;19.864;2023-04-24T10:45:29;29.70;25.00
11142;DHT22;5625;50.122;19.864;2023-04-24T10:47:58;29.80;26.20
11142;DHT22;5625;50.122;19.864;2023-04-24T10:50:43;29.70;26.00
11142;DHT22;5625;50.122;19.864;2023-04-24T10:53:17;29.70;26.70
11142;DHT22;5625;50.122;19.864;2023-04-24T10:55:47;29.60;26.90
11142;DHT22;5625;50.122;19.864;2023-04-24T10:58:16;29.40;25.20
11142;DHT22;5625;50.122;19.864;2023-04-24T11:00:47;29.50;25.60
11142;DHT22;5625;50.122;19.864;2023-04-24T11:03:24;29.60;26.70
11142;DHT22;5625;50.122;19.864;2023-04-24T11:05:57;29.30;23.80
11142;DHT22;5625;50.122;19.864;2023-04-24T11:08:28;29.00;21.70
11142;DHT22;5625;50.122;19.864;2023-04-24T11:11:02;29.20;22.10
11142;DHT22;5625;50.122;19.864;2023-04-24T11:14:05;28.90;19.70
11142;DHT22;5625;50.122;19.864;2023-04-24T11:16:39;28.50;19.00
11142;DHT22;5625;50.122;19.864;2023-04-24T11:19:24;28.70;19.20
11142;DHT22;5625;50.122;19.864;2023-04-24T11:21:58;29.20;20.60
11142;DHT22;5625;50.122;19.864;2023-04-24T11:24:31;29.30;19.60
11142;DHT22;5625;50.122;19.864;2023-04-24T11:27:05;29.00;17.60
11142;DHT22;5625;50.122;19.864;2023-04-24T11:29:44;28.90;16.20
11142;DHT22;5625;50.122;19.864;2023-04-24T11:32:23;28.70;16.20
11142;DHT22;5625;50.122;19.864;2023-04-24T11:34:56;29.00;16.30
11142;DHT22;5625;50.122;19.864;2023-04-24T11:37:26;29.30;16.10
11142;DHT22;5625;50.122;19.864;2023-04-24T11:39:58;29.40;16.50
11142;DHT22;5625;50.122;19.864;2023-04-24T11:42:28;29.50;15.80
11142;DHT22;5625;50.122;19.864;2023-04-24T11:44:56;29.30;15.60
11142;DHT22;5625;50.122;19.864;2023-04-24T11:47:28;28.70;15.00
11142;DHT22;5625;50.122;19.864;2023-04-24T11:49:58;28.50;14.10
11142;DHT22;5625;50.122;19.864;2023-04-24T11:52:28;28.60;14.20
11142;DHT22;5625;50.122;19.864;2023-04-24T11:54:59;28.50;14.40
11142;DHT22;5625;50.122;19.864;2023-04-24T11:57:29;28.40;14.10
11142;DHT22;5625;50.122;19.864;2023-04-24T12:00:00;28.40;14.40
11142;DHT22;5625;50.122;19.864;2023-04-24T12:02:31;28.50;15.10
11142;DHT22;5625;50.122;19.864;2023-04-24T12:04:59;28.20;14.10
11142;DHT22;5625;50.122;19.864;2023-04-24T12:07:28;28.30;14.20
11142;DHT22;5625;50.122;19.864;2023-04-24T12:09:58;28.60;24.20
11142;DHT22;5625;50.122;19.864;2023-04-24T12:12:27;28.50;14.60
11142;DHT22;5625;50.122;19.864;2023-04-24T12:14:57;28.70;15.40
11142;DHT22;5625;50.122;19.864;2023-04-24T12:17:27;28.60;15.00
11142;DHT22;5625;50.122;19.864;2023-04-24T12:19:59;28.40;13.80
11142;DHT22;5625;50.122;19.864;2023-04-24T12:22:43;28.20;14.50
11142;DHT22;5625;50.122;19.864;2023-04-24T12:25:14;28.20;14.60
11142;DHT22;5625;50.122;19.864;2023-04-24T12:27:44;28.10;14.70
11142;DHT22;5625;50.122;19.864;2023-04-24T12:30:14;27.90;15.30
11142;DHT22;5625;50.122;19.864;2023-04-24T12:32:43;27.90;15.60
11142;DHT22;5625;50.122;19.864;2023-04-24T12:35:11;28.10;16.50
11142;DHT22;5625;50.122;19.864;2023-04-24T12:37:42;28.30;17.70
11142;DHT22;5625;50.122;19.864;2023-04-24T12:40:16;28.40;18.70
11142;DHT22;5625;50.122;19.864;2023-04-24T12:42:45;28.60;19.30
11142;DHT22;5625;50.122;19.864;2023-04-24T12:45:14;28.30;19.80
11142;DHT22;5625;50.122;19.864;2023-04-24T12:47:43;27.90;23.50
11142;DHT22;5625;50.122;19.864;2023-04-24T12:50:13;27.60;26.80
11142;DHT22;5625;50.122;19.864;2023-04-24T12:52:42;27.30;29.20
11142;DHT22;5625;50.122;19.864;2023-04-24T12:55:10;26.90;31.50
11142;DHT22;5625;50.122;19.864;2023-04-24T12:57:40;26.50;34.30
11142;DHT22;5625;50.122;19.864;2023-04-24T13:00:09;26.30;37.90
11142;DHT22;5625;50.122;19.864;2023-04-24T13:02:37;26.10;41.20
11142;DHT22;5625;50.122;19.864;2023-04-24T13:05:06;26.00;45.00
11142;DHT22;5625;50.122;19.864;2023-04-24T13:07:34;25.70;48.80
11142;DHT22;5625;50.122;19.864;2023-04-24T13:10:03;25.60;53.50
11142;DHT22;5625;50.122;19.864;2023-04-24T13:12:31;25.50;61.10
11142;DHT22;5625;50.122;19.864;2023-04-24T13:15:00;25.20;65.30
11142;DHT22;5625;50.122;19.864;2023-04-24T13:17:28;25.10;80.90
11142;DHT22;5625;50.122;19.864;2023-04-24T13:19:57;24.90;75.80
11142;DHT22;5625;50.122;19.864;2023-04-24T13:22:25;24.60;85.00
11142;DHT22;5625;50.122;19.864;2023-04-24T13:24:54;24.40;91.40
11142;DHT22;5625;50.122;19.864;2023-04-24T13:27:23;24.30;98.00
11142;DHT22;5625;50.122;19.864;2023-04-24T13:29:51;24.10;99.90
11142;DHT22;5625;50.122;19.864;2023-04-24T13:32:21;24.00;99.90
11142;DHT22;5625;50.122;19.864;2023-04-24T13:34:49;23.90;99.90
11142;DHT22;5625;50.122;19.864;2023-04-24T13:37:17;23.80;99.90
11142;DHT22;5625;50.122;19.864;2023-04-24T13:39:45;23.70;99.90
11142;DHT22;5625;50.122;19.864;2023-04-24T13:42:13;23.50;99.90
11142;DHT22;5625;50.122;19.864;2023-04-24T13:44:41;23.40;99.90
11142;DHT22;5625;50.122;19.864;2023-04-24T13:47:09;23.30;99.90
11142;DHT22;5625;50.122;19.864;2023-04-24T13:49:39;23.20;99.90
11142;DHT22;5625;50.122;19.864;2023-04-24T13:52:07;23.00;99.90
11142;DHT22;5625;50.122;19.864;2023-04-24T13:54:37;22.90;99.90
11142;DHT22;5625;50.122;19.864;2023-04-24T13:57:05;22.60;99.90
11142;DHT22;5625;50.122;19.864;2023-04-24T13:59:33;22.50;99.90
11142;DHT22;5625;50.122;19.864;2023-04-24T14:02:02;22.30;99.90
11142;DHT22;5625;50.122;19.864;2023-04-24T14:04:30;22.30;99.90
11142;DHT22;5625;50.122;19.864;2023-04-24T14:07:00;22.30;99.90
11142;DHT22;5625;50.122;19.864;2023-04-24T14:09:28;22.20;99.90
11142;DHT22;5625;50.122;19.864;2023-04-24T14:11:56;22.00;99.90
11142;DHT22;5625;50.122;19.864;2023-04-24T14:14:24;21.90;99.90
11142;DHT22;5625;50.122;19.864;2023-04-24T14:16:56;21.80;99.90
11142;DHT22;5625;50.122;19.864;2023-04-24T14:19:24;21.80;99.90
11142;DHT22;5625;50.122;19.864;2023-04-24T14:21:52;21.70;99.90
11142;DHT22;5625;50.122;19.864;2023-04-24T14:24:23;21.60;99.90
11142;DHT22;5625;50.122;19.864;2023-04-24T14:26:52;21.50;1.00
11142;DHT22;5625;50.122;19.864;2023-04-24T14:29:20;21.50;1.00
11142;DHT22;5625;50.122;19.864;2023-04-24T14:31:48;21.30;1.00
11142;DHT22;5625;50.122;19.864;2023-04-24T14:34:19;21.30;1.00
11142;DHT22;5625;50.122;19.864;2023-04-24T14:36:48;21.20;1.00
11142;DHT22;5625;50.122;19.864;2023-04-24T14:39:16;21.10;1.00
11142;DHT22;5625;50.122;19.864;2023-04-24T14:41:46;21.10;1.00
11142;DHT22;5625;50.122;19.864;2023-04-24T14:44:14;21.00;1.00
11142;DHT22;5625;50.122;19.864;2023-04-24T14:46:45;21.00;14.90
11142;DHT22;5625;50.122;19.864;2023-04-24T14:49:13;20.90;29.20
11142;DHT22;5625;50.122;19.864;2023-04-24T14:51:41;20.90;64.30
11142;DHT22;5625;50.122;19.864;2023-04-24T14:54:10;20.80;71.00
11142;DHT22;5625;50.122;19.864;2023-04-24T14:56:38;20.80;93.40
11142;DHT22;5625;50.122;19.864;2023-04-24T14:59:08;20.80;99.90
11142;DHT22;5625;50.122;19.864;2023-04-24T15:01:36;20.80;99.90
11142;DHT22;5625;50.122;19.864;2023-04-24T15:04:05;20.80;99.90
11142;DHT22;5625;50.122;19.864;2023-04-24T15:06:33;20.80;99.90
11142;DHT22;5625;50.122;19.864;2023-04-24T15:09:01;20.80;99.90
11142;DHT22;5625;50.122;19.864;2023-04-24T15:11:29;20.80;99.90
11142;DHT22;5625;50.122;19.864;2023-04-24T15:13:57;20.80;99.90
11142;DHT22;5625;50.122;19.864;2023-04-24T15:16:26;20.80;99.90
11142;DHT22;5625;50.122;19.864;2023-04-24T15:18:55;20.80;99.90
11142;DHT22;5625;50.122;19.864;2023-04-24T15:21:23;20.80;99.90
11142;DHT22;5625;50.122;19.864;2023-04-24T15:23:52;20.70;99.90
11142;DHT22;5625;50.122;19.864;2023-04-24T15:26:21;20.70;99.90
11142;DHT22;5625;50.122;19.864;2023-04-24T15:28:49;20.70;99.90
11142;DHT22;5625;50.122;19.864;2023-04-24T15:31:18;20.70;99.90
11142;DHT22;5625;50.122;19.864;2023-04-24T15:33:48;20.60;99.90
11142;DHT22;5625;50.122;19.864;2023-04-24T15:36:17;20.70;1.00
11142;DHT22;5625;50.122;19.864;2023-04-24T15:38:46;20.60;1.00
11142;DHT22;5625;50.122;19.864;2023-04-24T15:41:14;20.50;1.00
11142;DHT22;5625;50.122;19.864;2023-04-24T15:43:42;20.50;1.00
11142;DHT22;5625;50.122;19.864;2023-04-24T15:46:10;20.30;1.00